sensor_id;sensor_type;location;lat;lon;timestamp;temperature;humidity
25949;DHT22;13961;51.178;4.448;2022-08-03T00:01:33;23.00;99.90
25949;DHT22;13961;51.178;4.448;2022-08-03T00:03:59;23.00;99.90
25949;DHT22;13961;51.178;4.448;2022-08-03T00:06:24;23.00;99.90
25949;DHT22;13961;51.178;4.448;2022-08-03T00:08:50;23.00;99.90
25949;DHT22;13961;51.178;4.448;2022-08-03T00:11:16;23.10;99.90
25949;DHT22;13961;51.178;4.448;2022-08-03T00:13:42;23.00;99.90
25949;DHT22;13961;51.178;4.448;2022-08-03T00:16:08;22.90;99.90
25949;DHT22;13961;51.178;4.448;2022-08-03T00:18:35;22.80;99.90
25949;DHT22;13961;51.178;4.448;2022-08-03T00:21:01;22.80;99.90
25949;DHT22;13961;51.178;4.448;2022-08-03T00:23:27;22.80;99.90
25949;DHT22;13961;51.178;4.448;2022-08-03T00:25:52;22.90;99.90
25949;DHT22;13961;51.178;4.448;2022-08-03T00:28:18;22.90;99.90
25949;DHT22;13961;51.178;4.448;2022-08-03T00:30:44;22.90;99.90
25949;DHT22;13961;51.178;4.448;2022-08-03T00:33:09;22.90;99.90
25949;DHT22;13961;51.178;4.448;2022-08-03T00:35:35;22.90;99.90
25949;DHT22;13961;51.178;4.448;2022-08-03T00:38:01;22.70;99.90
25949;DHT22;13961;51.178;4.448;2022-08-03T00:40:27;22.70;99.90
25949;DHT22;13961;51.178;4.448;2022-08-03T00:42:54;22.70;99.90
25949;DHT22;13961;51.178;4.448;2022-08-03T00:45:31;22.70;99.90
25949;DHT22;13961;51.178;4.448;2022-08-03T00:47:58;22.60;99.90
25949;DHT22;13961;51.178;4.448;2022-08-03T00:50:26;22.60;99.90
25949;DHT22;13961;51.178;4.448;2022-08-03T00:52:55;22.60;99.90
25949;DHT22;13961;51.178;4.448;2022-08-03T00:55:21;22.50;99.90
25949;DHT22;13961;51.178;4.448;2022-08-03T00:57:47;22.50;99.90
25949;DHT22;13961;51.178;4.448;2022-08-03T01:00:16;22.50;99.90
25949;DHT22;13961;51.178;4.448;2022-08-03T01:02:43;22.50;99.90
25949;DHT22;13961;51.178;4.448;2022-08-03T01:05:09;22.40;99.90
25949;DHT22;13961;51.178;4.448;2022-08-03T01:15:27;22.30;99.90
25949;DHT22;13961;51.178;4.448;2022-08-03T01:18:14;22.40;99.90
25949;DHT22;13961;51.178;4.448;2022-08-03T01:20:44;22.30;99.90
25949;DHT22;13961;51.178;4.448;2022-08-03T01:25:54;22.10;99.90
25949;DHT22;13961;51.178;4.448;2022-08-03T01:31:08;22.10;99.90
25949;DHT22;13961;51.178;4.448;2022-08-03T01:33:39;22.00;99.90
25949;DHT22;13961;51.178;4.448;2022-08-03T01:36:13;22.00;99.90
25949;DHT22;13961;51.178;4.448;2022-08-03T01:39:01;22.10;99.90
25949;DHT22;13961;51.178;4.448;2022-08-03T01:41:38;22.10;99.90
25949;DHT22;13961;51.178;4.448;2022-08-03T01:44:07;22.10;99.90
25949;DHT22;13961;51.178;4.448;2022-08-03T01:46:34;21.90;99.90
25949;DHT22;13961;51.178;4.448;2022-08-03T01:49:02;22.00;99.90
25949;DHT22;13961;51.178;4.448;2022-08-03T01:51:31;22.00;99.90
25949;DHT22;13961;51.178;4.448;2022-08-03T01:53:58;22.00;99.90
25949;DHT22;13961;51.178;4.448;2022-08-03T01:56:25;21.90;99.90
25949;DHT22;13961;51.178;4.448;2022-08-03T01:58:53;21.80;99.90
25949;DHT22;13961;51.178;4.448;2022-08-03T02:01:20;21.80;99.90
25949;DHT22;13961;51.178;4.448;2022-08-03T02:03:48;21.80;99.90
25949;DHT22;13961;51.178;4.448;2022-08-03T02:06:14;21.80;99.90
25949;DHT22;13961;51.178;4.448;2022-08-03T02:08:42;21.70;99.90
25949;DHT22;13961;51.178;4.448;2022-08-03T02:11:09;21.70;99.90
25949;DHT22;13961;51.178;4.448;2022-08-03T02:13:36;21.50;99.90
25949;DHT22;13961;51.178;4.448;2022-08-03T02:16:03;21.40;99.90
25949;DHT22;13961;51.178;4.448;2022-08-03T02:18:31;21.30;99.90
25949;DHT22;13961;51.178;4.448;2022-08-03T02:21:00;21.30;99.90
25949;DHT22;13961;51.178;4.448;2022-08-03T02:23:26;21.30;99.90
25949;DHT22;13961;51.178;4.448;2022-08-03T02:25:57;21.40;99.90
25949;DHT22;13961;51.178;4.448;2022-08-03T02:28:30;21.30;99.90
25949;DHT22;13961;51.178;4.448;2022-08-03T02:30:57;21.30;99.90
25949;DHT22;13961;51.178;4.448;2022-08-03T02:33:29;21.40;99.90
25949;DHT22;13961;51.178;4.448;2022-08-03T02:35:57;21.20;99.90
25949;DHT22;13961;51.178;4.448;2022-08-03T02:38:28;21.20;99.90
25949;DHT22;13961;51.178;4.448;2022-08-03T02:40:57;21.30;99.90
25949;DHT22;13961;51.178;4.448;2022-08-03T02:43:23;21.30;99.90
25949;DHT22;13961;51.178;4.448;2022-08-03T02:45:50;21.30;99.90
25949;DHT22;13961;51.178;4.448;2022-08-03T02:48:22;21.30;99.90
25949;DHT22;13961;51.178;4.448;2022-08-03T02:50:51;21.30;99.90
25949;DHT22;13961;51.178;4.448;2022-08-03T02:53:18;21.30;99.90
25949;DHT22;13961;51.178;4.448;2022-08-03T02:55:46;21.30;99.90
25949;DHT22;13961;51.178;4.448;2022-08-03T02:58:13;21.20;99.90
25949;DHT22;13961;51.178;4.448;2022-08-03T03:00:39;21.20;99.90
25949;DHT22;13961;51.178;4.448;2022-08-03T03:03:06;21.30;99.90
25949;DHT22;13961;51.178;4.448;2022-08-03T03:05:33;21.30;99.90
25949;DHT22;13961;51.178;4.448;2022-08-03T03:07:59;21.20;99.90
25949;DHT22;13961;51.178;4.448;2022-08-03T03:10:25;21.20;99.90
25949;DHT22;13961;51.178;4.448;2022-08-03T03:12:55;21.20;99.90
25949;DHT22;13961;51.178;4.448;2022-08-03T03:15:22;21.20;99.90
25949;DHT22;13961;51.178;4.448;2022-08-03T03:17:49;21.00;99.90
25949;DHT22;13961;51.178;4.448;2022-08-03T03:20:16;21.00;99.90
25949;DHT22;13961;51.178;4.448;2022-08-03T03:22:43;21.00;99.90
25949;DHT22;13961;51.178;4.448;2022-08-03T03:25:09;21.00;99.90
25949;DHT22;13961;51.178;4.448;2022-08-03T03:27:35;20.90;99.90
25949;DHT22;13961;51.178;4.448;2022-08-03T03:30:03;20.80;99.90
25949;DHT22;13961;51.178;4.448;2022-08-03T03:32:29;20.80;99.90
25949;DHT22;13961;51.178;4.448;2022-08-03T03:34:55;20.90;99.90
25949;DHT22;13961;51.178;4.448;2022-08-03T03:37:23;21.00;99.90
25949;DHT22;13961;51.178;4.448;2022-08-03T03:39:52;21.00;99.90
25949;DHT22;13961;51.178;4.448;2022-08-03T03:42:18;20.80;99.90
25949;DHT22;13961;51.178;4.448;2022-08-03T03:44:43;20.70;99.90
25949;DHT22;13961;51.178;4.448;2022-08-03T03:47:09;20.70;99.90
25949;DHT22;13961;51.178;4.448;2022-08-03T03:49:35;20.80;99.90
25949;DHT22;13961;51.178;4.448;2022-08-03T03:52:01;20.80;99.90
25949;DHT22;13961;51.178;4.448;2022-08-03T03:54:41;20.80;99.90
25949;DHT22;13961;51.178;4.448;2022-08-03T03:57:07;20.80;99.90
25949;DHT22;13961;51.178;4.448;2022-08-03T03:59:39;20.60;99.90
25949;DHT22;13961;51.178;4.448;2022-08-03T04:02:06;20.70;99.90
25949;DHT22;13961;51.178;4.448;2022-08-03T04:04:34;20.70;99.90
25949;DHT22;13961;51.178;4.448;2022-08-03T04:07:19;20.70;99.90
25949;DHT22;13961;51.178;4.448;2022-08-03T04:10:13;20.60;99.90
25949;DHT22;13961;51.178;4.448;2022-08-03T04:12:59;20.50;99.90
25949;DHT22;13961;51.178;4.448;2022-08-03T04:15:27;20.50;99.90
25949;DHT22;13961;51.178;4.448;2022-08-03T04:17:56;20.60;99.90
25949;DHT22;13961;51.178;4.448;2022-08-03T04:20:27;20.50;99.90
25949;DHT22;13961;51.178;4.448;2022-08-03T04:22:55;20.60;99.90
25949;DHT22;13961;51.178;4.448;2022-08-03T04:25:26;20.70;99.90
25949;DHT22;13961;51.178;4.448;2022-08-03T04:27:52;20.70;99.90
25949;DHT22;13961;51.178;4.448;2022-08-03T04:30:21;20.70;99.90
25949;DHT22;13961;51.178;4.448;2022-08-03T04:32:48;20.70;99.90
25949;DHT22;13961;51.178;4.448;2022-08-03T04:35:17;20.80;99.90
25949;DHT22;13961;51.178;4.448;2022-08-03T04:37:46;20.70;99.90
25949;DHT22;13961;51.178;4.448;2022-08-03T04:40:15;20.70;99.90
25949;DHT22;13961;51.178;4.448;2022-08-03T04:42:43;20.70;99.90
25949;DHT22;13961;51.178;4.448;2022-08-03T04:45:15;20.70;99.90
25949;DHT22;13961;51.178;4.448;2022-08-03T04:47:41;20.60;99.90
25949;DHT22;13961;51.178;4.448;2022-08-03T04:50:08;20.70;99.90
25949;DHT22;13961;51.178;4.448;2022-08-03T04:52:34;20.70;99.90
25949;DHT22;13961;51.178;4.448;2022-08-03T04:55:00;20.80;99.90
25949;DHT22;13961;51.178;4.448;2022-08-03T04:57:26;20.80;99.90
25949;DHT22;13961;51.178;4.448;2022-08-03T04:59:53;20.90;99.90
25949;DHT22;13961;51.178;4.448;2022-08-03T05:02:19;20.90;99.90
25949;DHT22;13961;51.178;4.448;2022-08-03T05:04:45;20.90;99.90
25949;DHT22;13961;51.178;4.448;2022-08-03T05:07:15;20.90;99.90
25949;DHT22;13961;51.178;4.448;2022-08-03T05:09:41;20.90;99.90
25949;DHT22;13961;51.178;4.448;2022-08-03T05:12:07;20.90;99.90
25949;DHT22;13961;51.178;4.448;2022-08-03T05:14:33;21.00;99.90
25949;DHT22;13961;51.178;4.448;2022-08-03T05:17:02;21.10;99.90
25949;DHT22;13961;51.178;4.448;2022-08-03T05:19:27;21.10;99.90
25949;DHT22;13961;51.178;4.448;2022-08-03T05:21:53;21.00;99.90
25949;DHT22;13961;51.178;4.448;2022-08-03T05:24:19;20.90;99.90
25949;DHT22;13961;51.178;4.448;2022-08-03T05:26:45;20.90;99.90
25949;DHT22;13961;51.178;4.448;2022-08-03T05:29:11;21.00;99.90
25949;DHT22;13961;51.178;4.448;2022-08-03T05:31:36;21.10;99.90
25949;DHT22;13961;51.178;4.448;2022-08-03T05:34:02;21.00;99.90
25949;DHT22;13961;51.178;4.448;2022-08-03T05:36:27;21.10;99.90
25949;DHT22;13961;51.178;4.448;2022-08-03T05:38:53;21.10;99.90
25949;DHT22;13961;51.178;4.448;2022-08-03T05:41:19;21.10;99.90
25949;DHT22;13961;51.178;4.448;2022-08-03T05:43:45;21.20;99.90
25949;DHT22;13961;51.178;4.448;2022-08-03T05:46:11;21.30;99.90
25949;DHT22;13961;51.178;4.448;2022-08-03T05:48:36;21.40;99.90
25949;DHT22;13961;51.178;4.448;2022-08-03T05:51:02;21.50;99.90
25949;DHT22;13961;51.178;4.448;2022-08-03T05:53:34;21.50;99.90
25949;DHT22;13961;51.178;4.448;2022-08-03T05:55:59;21.60;99.90
25949;DHT22;13961;51.178;4.448;2022-08-03T05:58:25;21.60;99.90
25949;DHT22;13961;51.178;4.448;2022-08-03T06:00:50;21.50;99.90
25949;DHT22;13961;51.178;4.448;2022-08-03T06:03:16;21.60;99.90
25949;DHT22;13961;51.178;4.448;2022-08-03T06:05:42;21.70;99.90
25949;DHT22;13961;51.178;4.448;2022-08-03T06:08:07;21.80;99.90
25949;DHT22;13961;51.178;4.448;2022-08-03T06:10:33;22.00;99.90
25949;DHT22;13961;51.178;4.448;2022-08-03T06:12:58;22.00;99.90
25949;DHT22;13961;51.178;4.448;2022-08-03T06:15:24;22.00;99.90
25949;DHT22;13961;51.178;4.448;2022-08-03T06:17:51;22.10;99.90
25949;DHT22;13961;51.178;4.448;2022-08-03T06:20:18;22.20;99.90
25949;DHT22;13961;51.178;4.448;2022-08-03T06:22:44;22.10;99.90
25949;DHT22;13961;51.178;4.448;2022-08-03T06:25:10;22.00;99.90
25949;DHT22;13961;51.178;4.448;2022-08-03T06:27:35;21.90;99.90
25949;DHT22;13961;51.178;4.448;2022-08-03T06:30:05;22.00;99.90
25949;DHT22;13961;51.178;4.448;2022-08-03T06:32:31;22.20;99.90
25949;DHT22;13961;51.178;4.448;2022-08-03T06:34:58;22.40;99.90
25949;DHT22;13961;51.178;4.448;2022-08-03T06:37:24;22.40;99.90
25949;DHT22;13961;51.178;4.448;2022-08-03T06:39:51;22.70;99.90
25949;DHT22;13961;51.178;4.448;2022-08-03T06:42:17;24.40;99.90
25949;DHT22;13961;51.178;4.448;2022-08-03T06:44:42;26.80;99.90
25949;DHT22;13961;51.178;4.448;2022-08-03T06:47:08;28.40;99.90
25949;DHT22;13961;51.178;4.448;2022-08-03T06:49:34;30.10;99.90
25949;DHT22;13961;51.178;4.448;2022-08-03T06:51:59;31.10;99.90
25949;DHT22;13961;51.178;4.448;2022-08-03T06:54:25;31.40;99.90
25949;DHT22;13961;51.178;4.448;2022-08-03T06:56:51;32.70;99.90
25949;DHT22;13961;51.178;4.448;2022-08-03T06:59:17;31.80;99.90
25949;DHT22;13961;51.178;4.448;2022-08-03T07:01:42;30.80;99.90
25949;DHT22;13961;51.178;4.448;2022-08-03T07:04:08;30.50;99.90
25949;DHT22;13961;51.178;4.448;2022-08-03T07:06:33;30.30;99.90
25949;DHT22;13961;51.178;4.448;2022-08-03T07:09:00;29.60;99.90
25949;DHT22;13961;51.178;4.448;2022-08-03T07:11:26;29.60;99.90
25949;DHT22;13961;51.178;4.448;2022-08-03T07:13:52;31.00;99.90
25949;DHT22;13961;51.178;4.448;2022-08-03T07:16:18;31.80;99.90
25949;DHT22;13961;51.178;4.448;2022-08-03T07:18:44;32.00;99.90
25949;DHT22;13961;51.178;4.448;2022-08-03T07:21:10;31.90;99.90
25949;DHT22;13961;51.178;4.448;2022-08-03T07:23:37;32.80;99.60
25949;DHT22;13961;51.178;4.448;2022-08-03T07:26:03;32.70;99.40
25949;DHT22;13961;51.178;4.448;2022-08-03T07:28:28;32.20;99.80
25949;DHT22;13961;51.178;4.448;2022-08-03T07:30:54;32.50;99.70
25949;DHT22;13961;51.178;4.448;2022-08-03T07:33:20;33.50;98.60
25949;DHT22;13961;51.178;4.448;2022-08-03T07:35:45;34.20;97.10
25949;DHT22;13961;51.178;4.448;2022-08-03T07:38:11;33.90;97.40
25949;DHT22;13961;51.178;4.448;2022-08-03T07:40:36;34.00;97.30
25949;DHT22;13961;51.178;4.448;2022-08-03T07:43:02;34.40;96.80
25949;DHT22;13961;51.178;4.448;2022-08-03T07:45:30;34.50;96.80
25949;DHT22;13961;51.178;4.448;2022-08-03T07:47:55;34.10;96.90
25949;DHT22;13961;51.178;4.448;2022-08-03T07:50:21;34.30;96.50
25949;DHT22;13961;51.178;4.448;2022-08-03T07:52:47;34.00;97.10
25949;DHT22;13961;51.178;4.448;2022-08-03T07:55:13;34.40;96.00
25949;DHT22;13961;51.178;4.448;2022-08-03T07:57:38;33.40;96.90
25949;DHT22;13961;51.178;4.448;2022-08-03T08:00:06;33.90;96.60
25949;DHT22;13961;51.178;4.448;2022-08-03T08:02:33;33.40;96.70
25949;DHT22;13961;51.178;4.448;2022-08-03T08:04:59;33.90;96.60
25949;DHT22;13961;51.178;4.448;2022-08-03T08:07:25;33.90;96.50
25949;DHT22;13961;51.178;4.448;2022-08-03T08:09:50;34.60;95.80
25949;DHT22;13961;51.178;4.448;2022-08-03T08:12:16;35.50;94.40
25949;DHT22;13961;51.178;4.448;2022-08-03T08:14:42;35.20;95.20
25949;DHT22;13961;51.178;4.448;2022-08-03T08:17:10;35.70;94.20
25949;DHT22;13961;51.178;4.448;2022-08-03T08:19:35;35.00;94.50
25949;DHT22;13961;51.178;4.448;2022-08-03T08:22:01;34.00;95.50
25949;DHT22;13961;51.178;4.448;2022-08-03T08:24:26;33.10;96.30
25949;DHT22;13961;51.178;4.448;2022-08-03T08:26:55;33.60;95.80
25949;DHT22;13961;51.178;4.448;2022-08-03T08:29:20;33.90;95.70
25949;DHT22;13961;51.178;4.448;2022-08-03T08:31:48;34.30;95.40
25949;DHT22;13961;51.178;4.448;2022-08-03T08:34:14;35.10;94.50
25949;DHT22;13961;51.178;4.448;2022-08-03T08:36:40;35.10;93.80
25949;DHT22;13961;51.178;4.448;2022-08-03T08:39:06;35.20;93.50
25949;DHT22;13961;51.178;4.448;2022-08-03T08:41:32;35.80;93.40
25949;DHT22;13961;51.178;4.448;2022-08-03T08:44:01;35.10;94.20
25949;DHT22;13961;51.178;4.448;2022-08-03T08:46:31;34.70;94.10
25949;DHT22;13961;51.178;4.448;2022-08-03T08:48:57;35.10;93.80
25949;DHT22;13961;51.178;4.448;2022-08-03T08:51:27;35.10;93.40
25949;DHT22;13961;51.178;4.448;2022-08-03T08:53:55;34.60;94.40
25949;DHT22;13961;51.178;4.448;2022-08-03T08:56:24;34.40;94.30
25949;DHT22;13961;51.178;4.448;2022-08-03T08:58:52;34.00;94.80
25949;DHT22;13961;51.178;4.448;2022-08-03T09:01:18;33.40;95.00
25949;DHT22;13961;51.178;4.448;2022-08-03T09:03:45;33.40;95.90
25949;DHT22;13961;51.178;4.448;2022-08-03T09:06:11;34.30;95.30
25949;DHT22;13961;51.178;4.448;2022-08-03T09:08:37;34.70;94.50
25949;DHT22;13961;51.178;4.448;2022-08-03T09:11:03;35.20;93.80
25949;DHT22;13961;51.178;4.448;2022-08-03T09:13:28;34.60;93.80
25949;DHT22;13961;51.178;4.448;2022-08-03T09:16:16;34.30;93.90
25949;DHT22;13961;51.178;4.448;2022-08-03T09:18:44;34.40;94.00
25949;DHT22;13961;51.178;4.448;2022-08-03T09:23:48;33.60;94.40
25949;DHT22;13961;51.178;4.448;2022-08-03T09:26:22;33.10;95.70
25949;DHT22;13961;51.178;4.448;2022-08-03T09:29:18;32.90;95.80
25949;DHT22;13961;51.178;4.448;2022-08-03T09:31:45;32.70;95.70
25949;DHT22;13961;51.178;4.448;2022-08-03T09:34:15;32.40;95.90
25949;DHT22;13961;51.178;4.448;2022-08-03T09:36:48;30.80;97.60
25949;DHT22;13961;51.178;4.448;2022-08-03T09:39:17;30.20;98.30
25949;DHT22;13961;51.178;4.448;2022-08-03T09:41:44;29.70;98.90
25949;DHT22;13961;51.178;4.448;2022-08-03T09:44:11;29.80;99.60
25949;DHT22;13961;51.178;4.448;2022-08-03T09:46:53;29.70;99.10
25949;DHT22;13961;51.178;4.448;2022-08-03T09:49:20;29.70;98.80
25949;DHT22;13961;51.178;4.448;2022-08-03T09:51:47;29.80;99.60
25949;DHT22;13961;51.178;4.448;2022-08-03T09:54:30;29.70;99.60
25949;DHT22;13961;51.178;4.448;2022-08-03T09:56:56;29.50;99.70
25949;DHT22;13961;51.178;4.448;2022-08-03T09:59:28;29.50;99.90
25949;DHT22;13961;51.178;4.448;2022-08-03T10:01:54;29.20;99.90
25949;DHT22;13961;51.178;4.448;2022-08-03T10:04:21;29.30;99.90
25949;DHT22;13961;51.178;4.448;2022-08-03T10:07:05;29.70;99.90
25949;DHT22;13961;51.178;4.448;2022-08-03T10:09:32;29.50;99.90
25949;DHT22;13961;51.178;4.448;2022-08-03T10:12:06;29.30;99.90
25949;DHT22;13961;51.178;4.448;2022-08-03T10:14:32;29.50;99.90
25949;DHT22;13961;51.178;4.448;2022-08-03T10:16:58;29.70;99.90
25949;DHT22;13961;51.178;4.448;2022-08-03T10:19:24;29.90;99.90
25949;DHT22;13961;51.178;4.448;2022-08-03T10:21:55;29.60;99.90
25949;DHT22;13961;51.178;4.448;2022-08-03T10:24:27;29.60;99.90
25949;DHT22;13961;51.178;4.448;2022-08-03T10:27:00;29.70;99.90
25949;DHT22;13961;51.178;4.448;2022-08-03T10:29:27;30.00;99.90
25949;DHT22;13961;51.178;4.448;2022-08-03T10:31:57;30.00;99.90
25949;DHT22;13961;51.178;4.448;2022-08-03T10:34:25;29.90;99.90
25949;DHT22;13961;51.178;4.448;2022-08-03T10:36:57;30.10;99.90
25949;DHT22;13961;51.178;4.448;2022-08-03T10:39:28;30.30;99.90
25949;DHT22;13961;51.178;4.448;2022-08-03T10:41:54;30.10;99.90
25949;DHT22;13961;51.178;4.448;2022-08-03T10:44:25;29.90;99.90
25949;DHT22;13961;51.178;4.448;2022-08-03T10:46:53;29.60;99.90
25949;DHT22;13961;51.178;4.448;2022-08-03T10:49:19;29.70;99.90
25949;DHT22;13961;51.178;4.448;2022-08-03T10:51:46;29.70;99.90
25949;DHT22;13961;51.178;4.448;2022-08-03T10:54:41;30.10;99.90
25949;DHT22;13961;51.178;4.448;2022-08-03T10:57:52;30.20;99.80
25949;DHT22;13961;51.178;4.448;2022-08-03T11:00:23;30.20;99.30
25949;DHT22;13961;51.178;4.448;2022-08-03T11:03:05;29.90;99.90
25949;DHT22;13961;51.178;4.448;2022-08-03T11:05:34;30.00;99.90
25949;DHT22;13961;51.178;4.448;2022-08-03T11:08:26;30.10;99.90
25949;DHT22;13961;51.178;4.448;2022-08-03T11:11:01;30.30;99.70
25949;DHT22;13961;51.178;4.448;2022-08-03T11:13:29;30.20;99.90
25949;DHT22;13961;51.178;4.448;2022-08-03T11:16:00;30.40;99.90
25949;DHT22;13961;51.178;4.448;2022-08-03T11:18:25;30.20;99.80
25949;DHT22;13961;51.178;4.448;2022-08-03T11:20:56;30.40;99.10
25949;DHT22;13961;51.178;4.448;2022-08-03T11:23:45;30.50;99.50
25949;DHT22;13961;51.178;4.448;2022-08-03T11:26:18;30.50;99.40
25949;DHT22;13961;51.178;4.448;2022-08-03T11:28:46;30.60;99.60
25949;DHT22;13961;51.178;4.448;2022-08-03T11:34:08;30.80;99.90
25949;DHT22;13961;51.178;4.448;2022-08-03T11:39:44;31.20;98.70
25949;DHT22;13961;51.178;4.448;2022-08-03T11:44:59;31.30;98.70
25949;DHT22;13961;51.178;4.448;2022-08-03T11:47:27;31.40;98.80
25949;DHT22;13961;51.178;4.448;2022-08-03T11:49:58;31.60;98.80
25949;DHT22;13961;51.178;4.448;2022-08-03T11:52:26;31.80;97.90
25949;DHT22;13961;51.178;4.448;2022-08-03T11:54:58;31.60;98.00
25949;DHT22;13961;51.178;4.448;2022-08-03T11:57:31;31.60;97.70
25949;DHT22;13961;51.178;4.448;2022-08-03T11:59:57;31.60;97.90
25949;DHT22;13961;51.178;4.448;2022-08-03T12:02:22;31.80;97.60
25949;DHT22;13961;51.178;4.448;2022-08-03T12:04:56;31.90;98.20
25949;DHT22;13961;51.178;4.448;2022-08-03T12:07:27;31.70;97.20
25949;DHT22;13961;51.178;4.448;2022-08-03T12:12:33;31.30;97.60
25949;DHT22;13961;51.178;4.448;2022-08-03T12:14:59;31.00;98.30
25949;DHT22;13961;51.178;4.448;2022-08-03T12:17:35;31.40;97.80
25949;DHT22;13961;51.178;4.448;2022-08-03T12:20:01;31.80;98.00
25949;DHT22;13961;51.178;4.448;2022-08-03T12:22:34;31.90;97.70
25949;DHT22;13961;51.178;4.448;2022-08-03T12:25:02;32.20;96.60
25949;DHT22;13961;51.178;4.448;2022-08-03T12:27:27;31.80;97.20
25949;DHT22;13961;51.178;4.448;2022-08-03T12:29:55;31.70;97.00
25949;DHT22;13961;51.178;4.448;2022-08-03T12:32:21;31.70;97.80
25949;DHT22;13961;51.178;4.448;2022-08-03T12:34:47;32.00;97.60
25949;DHT22;13961;51.178;4.448;2022-08-03T12:37:17;32.50;96.80
25949;DHT22;13961;51.178;4.448;2022-08-03T12:39:52;32.70;96.40
25949;DHT22;13961;51.178;4.448;2022-08-03T12:42:18;32.70;96.80
25949;DHT22;13961;51.178;4.448;2022-08-03T12:44:44;32.50;96.10
25949;DHT22;13961;51.178;4.448;2022-08-03T12:47:11;32.40;96.20
25949;DHT22;13961;51.178;4.448;2022-08-03T12:49:50;32.40;96.40
25949;DHT22;13961;51.178;4.448;2022-08-03T12:52:18;32.50;97.10
25949;DHT22;13961;51.178;4.448;2022-08-03T12:54:58;32.90;96.10
25949;DHT22;13961;51.178;4.448;2022-08-03T12:57:24;32.80;96.30
25949;DHT22;13961;51.178;4.448;2022-08-03T12:59:50;32.90;95.80
25949;DHT22;13961;51.178;4.448;2022-08-03T13:02:24;33.10;95.70
25949;DHT22;13961;51.178;4.448;2022-08-03T13:04:51;33.20;95.10
25949;DHT22;13961;51.178;4.448;2022-08-03T13:07:17;32.90;95.70
25949;DHT22;13961;51.178;4.448;2022-08-03T13:09:44;32.30;95.80
25949;DHT22;13961;51.178;4.448;2022-08-03T13:12:11;32.00;95.80
25949;DHT22;13961;51.178;4.448;2022-08-03T13:14:37;32.00;96.70
25949;DHT22;13961;51.178;4.448;2022-08-03T13:17:04;32.20;96.20
25949;DHT22;13961;51.178;4.448;2022-08-03T13:19:35;32.50;96.60
25949;DHT22;13961;51.178;4.448;2022-08-03T13:22:10;32.70;96.20
25949;DHT22;13961;51.178;4.448;2022-08-03T13:24:36;32.90;95.80
25949;DHT22;13961;51.178;4.448;2022-08-03T13:27:02;33.10;95.60
25949;DHT22;13961;51.178;4.448;2022-08-03T13:29:29;33.30;95.40
25949;DHT22;13961;51.178;4.448;2022-08-03T13:31:55;33.30;95.10
25949;DHT22;13961;51.178;4.448;2022-08-03T13:34:20;33.30;94.40
25949;DHT22;13961;51.178;4.448;2022-08-03T13:36:46;33.20;94.50
25949;DHT22;13961;51.178;4.448;2022-08-03T13:39:12;32.90;94.40
25949;DHT22;13961;51.178;4.448;2022-08-03T13:41:37;32.40;94.90
25949;DHT22;13961;51.178;4.448;2022-08-03T13:44:03;32.00;96.10
25949;DHT22;13961;51.178;4.448;2022-08-03T13:46:28;32.10;95.60
25949;DHT22;13961;51.178;4.448;2022-08-03T13:48:54;32.30;95.80
25949;DHT22;13961;51.178;4.448;2022-08-03T13:51:20;32.40;95.90
25949;DHT22;13961;51.178;4.448;2022-08-03T13:53:45;32.40;95.50
25949;DHT22;13961;51.178;4.448;2022-08-03T13:56:11;32.50;95.60
25949;DHT22;13961;51.178;4.448;2022-08-03T13:58:36;32.70;95.20
25949;DHT22;13961;51.178;4.448;2022-08-03T14:01:02;32.70;95.40
25949;DHT22;13961;51.178;4.448;2022-08-03T14:03:27;32.90;95.10
25949;DHT22;13961;51.178;4.448;2022-08-03T14:05:53;32.80;95.20
25949;DHT22;13961;51.178;4.448;2022-08-03T14:08:18;33.00;94.40
25949;DHT22;13961;51.178;4.448;2022-08-03T14:10:44;33.20;94.80
25949;DHT22;13961;51.178;4.448;2022-08-03T14:13:12;33.30;94.00
25949;DHT22;13961;51.178;4.448;2022-08-03T14:15:39;33.40;93.90
25949;DHT22;13961;51.178;4.448;2022-08-03T14:18:06;33.50;94.10
25949;DHT22;13961;51.178;4.448;2022-08-03T14:20:32;33.60;93.50
25949;DHT22;13961;51.178;4.448;2022-08-03T14:22:57;33.60;93.50
25949;DHT22;13961;51.178;4.448;2022-08-03T14:25:23;33.60;93.40
25949;DHT22;13961;51.178;4.448;2022-08-03T14:27:49;33.20;93.30
25949;DHT22;13961;51.178;4.448;2022-08-03T14:30:15;32.90;93.90
25949;DHT22;13961;51.178;4.448;2022-08-03T14:32:40;32.70;93.90
25949;DHT22;13961;51.178;4.448;2022-08-03T14:35:06;32.90;94.50
25949;DHT22;13961;51.178;4.448;2022-08-03T14:37:32;33.30;94.10
25949;DHT22;13961;51.178;4.448;2022-08-03T14:39:58;33.50;94.60
25949;DHT22;13961;51.178;4.448;2022-08-03T14:42:24;33.00;94.30
25949;DHT22;13961;51.178;4.448;2022-08-03T14:44:49;32.40;94.40
25949;DHT22;13961;51.178;4.448;2022-08-03T14:47:15;32.40;95.40
25949;DHT22;13961;51.178;4.448;2022-08-03T14:49:41;32.40;94.40
25949;DHT22;13961;51.178;4.448;2022-08-03T14:52:07;32.50;94.50
25949;DHT22;13961;51.178;4.448;2022-08-03T14:54:33;32.70;94.70
25949;DHT22;13961;51.178;4.448;2022-08-03T14:56:59;32.80;94.60
25949;DHT22;13961;51.178;4.448;2022-08-03T14:59:25;33.20;95.00
25949;DHT22;13961;51.178;4.448;2022-08-03T15:01:51;33.80;94.20
25949;DHT22;13961;51.178;4.448;2022-08-03T15:04:17;34.10;92.40
25949;DHT22;13961;51.178;4.448;2022-08-03T15:06:42;33.90;92.50
25949;DHT22;13961;51.178;4.448;2022-08-03T15:09:08;33.70;92.20
25949;DHT22;13961;51.178;4.448;2022-08-03T15:11:34;33.80;92.80
25949;DHT22;13961;51.178;4.448;2022-08-03T15:14:00;33.80;93.10
25949;DHT22;13961;51.178;4.448;2022-08-03T15:16:26;33.60;92.70
25949;DHT22;13961;51.178;4.448;2022-08-03T15:18:52;33.30;93.50
25949;DHT22;13961;51.178;4.448;2022-08-03T15:21:18;33.00;93.30
25949;DHT22;13961;51.178;4.448;2022-08-03T15:23:43;32.90;93.60
25949;DHT22;13961;51.178;4.448;2022-08-03T15:26:09;32.90;93.60
25949;DHT22;13961;51.178;4.448;2022-08-03T15:28:34;32.90;93.30
25949;DHT22;13961;51.178;4.448;2022-08-03T15:31:00;33.00;93.60
25949;DHT22;13961;51.178;4.448;2022-08-03T15:33:26;33.50;93.60
25949;DHT22;13961;51.178;4.448;2022-08-03T15:35:52;33.60;92.50
25949;DHT22;13961;51.178;4.448;2022-08-03T15:38:20;33.90;92.90
25949;DHT22;13961;51.178;4.448;2022-08-03T15:40:48;34.10;92.10
25949;DHT22;13961;51.178;4.448;2022-08-03T15:43:14;34.30;92.40
25949;DHT22;13961;51.178;4.448;2022-08-03T15:45:40;34.00;91.70
25949;DHT22;13961;51.178;4.448;2022-08-03T15:48:07;34.10;92.30
25949;DHT22;13961;51.178;4.448;2022-08-03T15:50:33;33.90;91.70
25949;DHT22;13961;51.178;4.448;2022-08-03T15:52:58;33.60;92.60
25949;DHT22;13961;51.178;4.448;2022-08-03T15:55:24;33.60;91.90
25949;DHT22;13961;51.178;4.448;2022-08-03T15:57:50;32.90;92.50
25949;DHT22;13961;51.178;4.448;2022-08-03T16:00:15;32.90;92.70
25949;DHT22;13961;51.178;4.448;2022-08-03T16:02:41;33.20;92.10